Time;durP1;ratioP1;P1;durP2;ratioP2;P2;SDS_P1;SDS_P2;PMS_P1;PMS_P2;Temp;Humidity;BMP_temperature;BMP_pressure;BME280_temperature;BME280_humidity;BME280_pressure;Samples;Min_cycle;Max_cycle;Signal;HPM_P1;HPM_P2
2023/06/24 00:01:49;;;;;;;9.10;7.35;;;;;;;20.28;74.37;102186.63;3571619;40;20360;-70
2023/06/24 00:04:16;;;;;;;9.32;7.35;;;;;;;20.24;74.31;102179.69;3571270;40;20060;-70
2023/06/24 00:06:42;;;;;;;7.88;7.07;;;;;;;20.11;74.83;102173.50;3574457;40;20052;-69
2023/06/24 00:09:08;;;;;;;9.57;7.60;;;;;;;20.10;75.19;102188.09;3574821;40;20331;-69
2023/06/24 00:11:33;;;;;;;8.45;7.55;;;;;;;20.05;75.97;102182.16;3575358;40;20123;-69
2023/06/24 00:13:59;;;;;;;8.30;7.47;;;;;;;20.02;76.22;102186.00;3575697;39;20093;-69
2023/06/24 00:16:28;;;;;;;9.93;7.93;;;;;;;19.87;76.29;102166.25;3574642;40;20103;-69
2023/06/24 00:18:58;;;;;;;8.98;8.13;;;;;;;19.97;76.25;102193.69;3560717;40;20463;-70
2023/06/24 00:21:29;;;;;;;10.20;8.98;;;;;;;19.92;75.38;102190.47;3573491;40;20792;-69
2023/06/24 00:23:57;;;;;;;9.32;7.93;;;;;;;19.93;75.66;102189.47;3566362;40;20230;-68
2023/06/24 00:26:22;;;;;;;8.93;7.88;;;;;;;19.82;76.02;102181.25;3572290;40;20507;-68
2023/06/24 00:28:48;;;;;;;9.57;8.68;;;;;;;19.84;76.15;102195.66;3570207;40;20060;-69
2023/06/24 00:31:14;;;;;;;9.80;8.07;;;;;;;19.86;76.27;102193.69;3575045;40;20067;-69
2023/06/24 00:33:39;;;;;;;9.65;8.07;;;;;;;19.76;76.69;102190.81;3573885;40;20405;-69
2023/06/24 00:36:06;;;;;;;9.27;8.38;;;;;;;19.81;77.09;102195.91;3571796;40;20072;-69
2023/06/24 00:38:32;;;;;;;9.73;8.13;;;;;;;19.77;77.49;102198.00;3571747;40;20392;-69
2023/06/24 00:40:59;;;;;;;9.68;8.38;;;;;;;19.69;77.22;102184.97;3573489;40;20682;-70
2023/06/24 00:43:24;;;;;;;9.75;8.82;;;;;;;19.70;77.08;102192.16;3573225;40;20118;-68
2023/06/24 00:45:53;;;;;;;9.63;8.63;;;;;;;19.41;77.78;102142.59;3570896;40;20060;-70
2023/06/24 00:48:20;;;;;;;8.90;8.00;;;;;;;19.65;78.41;102194.38;3572090;40;20393;-68
2023/06/24 00:50:47;;;;;;;9.98;8.52;;;;;;;19.64;77.80;102202.69;3572470;40;20126;-70
2023/06/24 00:53:12;;;;;;;9.30;8.27;;;;;;;19.62;77.37;102205.50;3574013;39;20071;-68
2023/06/24 00:55:38;;;;;;;9.40;8.40;;;;;;;19.55;77.77;102193.34;3574688;40;20083;-68
2023/06/24 00:58:04;;;;;;;9.45;8.55;;;;;;;19.61;77.63;102208.34;3570650;40;20064;-69
2023/06/24 01:00:32;;;;;;;10.43;8.23;;;;;;;19.59;77.03;102205.72;3577100;40;20052;-69
2023/06/24 01:02:59;;;;;;;9.15;8.25;;;;;;;19.54;77.04;102198.94;3573587;40;20052;-69
2023/06/24 01:05:28;;;;;;;10.25;8.55;;;;;;;19.54;77.11;102202.50;3574330;40;20396;-69
2023/06/24 01:07:56;;;;;;;9.55;8.57;;;;;;;19.54;76.46;102191.59;3571360;40;20125;-69
2023/06/24 01:10:24;;;;;;;13.35;8.38;;;;;;;19.55;76.56;102187.88;3575273;40;20343;-70
2023/06/24 01:12:50;;;;;;;8.82;7.85;;;;;;;19.47;75.65;102168.50;3572328;40;20152;-69
2023/06/24 01:15:20;;;;;;;10.80;8.15;;;;;;;19.54;75.28;102193.47;3576907;40;20060;-70
2023/06/24 01:18:02;;;;;;;8.38;7.53;;;;;;;19.52;74.48;102189.97;3573653;40;20059;-69
2023/06/24 01:21:03;;;;;;;8.43;7.50;;;;;;;19.50;73.00;102184.63;3572610;40;20331;-69
2023/06/24 01:23:51;;;;;;;8.77;7.18;;;;;;;19.49;73.35;102182.91;3573258;40;20063;-70
2023/06/24 01:26:44;;;;;;;8.43;7.60;;;;;;;18.75;72.79;102074.13;3571298;40;20170;-69
2023/06/24 01:30:16;;;;;;;9.70;7.50;;;;;;;19.45;73.48;102187.72;3571637;40;20096;-69
2023/06/24 01:32:56;;;;;;;10.38;7.85;;;;;;;19.46;72.81;102184.00;3565390;40;20057;-68
2023/06/24 01:35:30;;;;;;;8.90;8.00;;;;;;;19.46;73.30;102180.41;3573063;40;20122;-68
2023/06/24 01:38:01;;;;;;;12.23;8.18;;;;;;;19.45;72.51;102178.69;3578264;40;20423;-68
2023/06/24 01:40:37;;;;;;;8.68;7.70;;;;;;;19.42;73.12;102182.50;3576527;40;20064;-69
2023/06/24 01:43:08;;;;;;;8.48;7.63;;;;;;;19.37;73.76;102181.97;3575360;40;20061;-69
2023/06/24 01:45:45;;;;;;;8.25;7.35;;;;;;;19.33;74.40;102175.03;3573247;40;20429;-71
2023/06/24 01:48:20;;;;;;;8.13;7.07;;;;;;;19.33;74.57;102182.34;3573686;40;20052;-69
2023/06/24 01:51:10;;;;;;;8.80;7.30;;;;;;;19.28;74.65;102184.56;3572817;40;20710;-69
2023/06/24 01:53:48;;;;;;;9.23;7.47;;;;;;;19.25;75.00;102174.75;3574945;39;20055;-68
2023/06/24 01:56:17;;;;;;;8.65;7.45;;;;;;;19.21;75.42;102175.97;3575409;40;20062;-67
2023/06/24 01:58:46;;;;;;;9.40;7.47;;;;;;;19.13;74.93;102165.69;3574292;40;20078;-69
2023/06/24 02:01:13;;;;;;;8.13;7.32;;;;;;;19.11;76.26;102173.09;3572681;40;20060;-68
2023/06/24 02:03:42;;;;;;;7.72;6.93;;;;;;;19.05;76.74;102168.13;3571270;40;20075;-68
2023/06/24 02:06:09;;;;;;;8.98;7.50;;;;;;;19.01;77.07;102172.06;3570209;40;20057;-69
2023/06/24 02:08:41;;;;;;;7.65;6.90;;;;;;;18.75;77.83;102142.22;3570506;40;20060;-69
2023/06/24 02:11:09;;;;;;;8.18;7.35;;;;;;;18.84;77.79;102170.63;3570012;40;20329;-69
2023/06/24 02:13:39;;;;;;;7.72;6.95;;;;;;;18.77;78.40;102163.88;3575121;40;20055;-68
2023/06/24 02:16:09;;;;;;;8.73;7.88;;;;;;;18.67;78.04;102155.50;3574471;40;20599;-69
2023/06/24 02:18:41;;;;;;;8.57;7.57;;;;;;;18.59;78.73;102157.94;3574792;40;20370;-69
2023/06/24 02:21:09;;;;;;;8.18;7.38;;;;;;;18.53;79.40;102164.72;3571056;40;20076;-71
2023/06/24 02:23:37;;;;;;;8.10;7.28;;;;;;;18.31;79.58;102138.19;3571702;40;20746;-70
2023/06/24 02:26:06;;;;;;;9.38;7.60;;;;;;;18.39;79.56;102162.13;3570215;40;20130;-70
2023/06/24 02:28:35;;;;;;;8.40;7.60;;;;;;;18.31;78.80;102161.84;3573567;40;20266;-68
2023/06/24 02:31:02;;;;;;;8.60;7.18;;;;;;;18.30;80.31;102166.41;3576377;40;20136;-68
2023/06/24 02:33:28;;;;;;;9.60;7.95;;;;;;;18.26;81.33;102167.59;3572738;39;20064;-68
2023/06/24 02:35:53;;;;;;;9.73;8.73;;;;;;;18.25;82.35;102163.16;3572602;40;20300;-68
2023/06/24 02:38:19;;;;;;;9.30;8.40;;;;;;;18.22;82.59;102170.66;3574853;40;20318;-68
2023/06/24 02:40:49;;;;;;;10.05;8.35;;;;;;;18.17;82.86;102167.41;3573284;40;20668;-69
2023/06/24 02:43:17;;;;;;;8.95;8.15;;;;;;;18.05;83.06;102159.16;3574466;40;20137;-69
2023/06/24 02:45:45;;;;;;;9.77;8.40;;;;;;;17.93;83.40;102154.59;3574419;40;20080;-68
2023/06/24 02:48:14;;;;;;;8.32;7.53;;;;;;;17.97;83.34;102163.41;3577259;40;20332;-68
2023/06/24 02:50:44;;;;;;;10.68;9.43;;;;;;;17.63;83.54;102122.25;3573539;40;20295;-68
2023/06/24 02:53:12;;;;;;;13.10;10.52;;;;;;;17.85;83.91;102157.84;3578664;39;20234;-68
2023/06/24 02:55:42;;;;;;;13.55;9.63;;;;;;;17.71;84.19;102144.34;3578808;40;20068;-68
2023/06/24 02:58:09;;;;;;;9.40;8.40;;;;;;;17.79;84.04;102169.19;3573053;40;20052;-68
2023/06/24 03:00:37;;;;;;;9.30;8.30;;;;;;;17.77;83.88;102178.44;3571880;40;20535;-68
2023/06/24 03:03:06;;;;;;;9.82;8.82;;;;;;;17.76;83.24;102182.06;3573543;40;20049;-68
2023/06/24 03:05:34;;;;;;;12.00;9.45;;;;;;;17.74;83.31;102178.63;3575853;40;20391;-68
2023/06/24 03:08:03;;;;;;;10.70;9.15;;;;;;;17.71;83.94;102193.28;3577600;40;20093;-70
2023/06/24 03:10:29;;;;;;;12.45;9.52;;;;;;;17.69;84.28;102189.81;3575916;40;20072;-67
2023/06/24 03:12:55;;;;;;;10.88;9.73;;;;;;;17.66;84.62;102195.47;3574696;40;20409;-67
2023/06/24 03:15:20;;;;;;;12.98;9.35;;;;;;;17.62;86.07;102192.09;3574743;40;20412;-69
2023/06/24 03:17:47;;;;;;;11.23;9.68;;;;;;;17.59;85.77;102186.84;3573692;40;20319;-68
2023/06/24 03:20:12;;;;;;;13.98;10.13;;;;;;;17.58;85.81;102185.13;3564193;40;20068;-67
2023/06/24 03:22:38;;;;;;;12.80;10.35;;;;;;;17.56;86.09;102192.50;3572289;40;20069;-69
2023/06/24 03:25:04;;;;;;;14.70;10.30;;;;;;;17.13;86.46;102116.69;3572080;40;20056;-68
2023/06/24 03:27:31;;;;;;;12.40;10.07;;;;;;;17.51;86.46;102185.69;3574807;40;20129;-67
2023/06/24 03:29:57;;;;;;;11.73;9.80;;;;;;;17.49;87.26;102185.75;3572682;40;20068;-68
2023/06/24 03:32:22;;;;;;;14.95;9.82;;;;;;;17.48;86.75;102185.88;3574874;40;20351;-70
2023/06/24 03:34:48;;;;;;;14.68;9.85;;;;;;;17.47;86.44;102181.41;3571739;40;20368;-69
2023/06/24 03:37:13;;;;;;;12.00;10.60;;;;;;;17.38;86.04;102172.06;3573239;40;20099;-68
2023/06/24 03:39:39;;;;;;;16.58;10.80;;;;;;;17.49;84.71;102176.75;3571858;40;20068;-68
2023/06/24 03:42:05;;;;;;;12.93;10.15;;;;;;;16.99;84.79;102088.72;3572919;40;20132;-67
2023/06/24 03:44:30;;;;;;;12.52;9.80;;;;;;;17.47;84.51;102173.25;3574869;40;20375;-68
2023/06/24 03:46:56;;;;;;;12.00;10.63;;;;;;;17.45;85.50;102177.94;3573927;40;20078;-69
2023/06/24 03:49:21;;;;;;;12.30;9.90;;;;;;;17.40;85.43;102173.66;3574477;40;20124;-68
2023/06/24 03:51:47;;;;;;;13.07;10.00;;;;;;;17.41;85.36;102179.97;3570488;40;20061;-69
2023/06/24 03:54:13;;;;;;;13.82;10.15;;;;;;;17.43;85.58;102188.03;3573703;40;20098;-70
2023/06/24 03:56:38;;;;;;;13.80;10.35;;;;;;;17.43;85.84;102188.91;3571422;40;20052;-68
2023/06/24 03:59:04;;;;;;;14.40;10.43;;;;;;;17.45;85.76;102191.53;3571914;40;20060;-68
2023/06/24 04:01:31;;;;;;;16.65;10.85;;;;;;;17.45;85.29;102196.97;3572755;40;20056;-69
2023/06/24 04:03:58;;;;;;;15.13;10.77;;;;;;;17.44;85.40;102203.38;3576514;40;20056;-69
2023/06/24 04:06:24;;;;;;;14.75;10.82;;;;;;;17.43;85.63;102198.91;3575697;40;20390;-69
2023/06/24 04:08:51;;;;;;;13.45;10.73;;;;;;;17.44;85.98;102197.94;3572351;40;20064;-69
2023/06/24 04:11:18;;;;;;;18.60;10.52;;;;;;;17.44;86.10;102197.94;3573221;40;20127;-68
2023/06/24 04:13:45;;;;;;;15.02;11.45;;;;;;;17.45;84.99;102205.13;3570798;40;20374;-68
2023/06/24 04:16:11;;;;;;;15.27;10.35;;;;;;;17.47;84.94;102192.28;3569926;40;20048;-67
2023/06/24 04:18:39;;;;;;;11.27;10.07;;;;;;;17.49;84.36;102190.34;3574399;40;20088;-68
2023/06/24 04:21:06;;;;;;;12.48;10.82;;;;;;;17.51;84.85;102191.13;3577638;40;20444;-67
2023/06/24 04:23:32;;;;;;;14.57;11.02;;;;;;;17.51;84.42;102193.84;3574489;40;20185;-68
2023/06/24 04:25:59;;;;;;;12.80;10.93;;;;;;;17.54;83.69;102197.19;3572489;40;20072;-68
2023/06/24 04:28:24;;;;;;;13.48;10.15;;;;;;;17.53;82.52;102202.72;3573595;40;20056;-68
2023/06/24 04:30:51;;;;;;;16.85;10.93;;;;;;;17.56;82.23;102197.94;3562911;40;20058;-69
2023/06/24 04:33:17;;;;;;;13.95;10.48;;;;;;;17.62;81.66;102202.97;3574862;40;20056;-68
2023/06/24 04:35:44;;;;;;;18.75;11.35;;;;;;;17.63;81.71;102215.59;3573167;40;20103;-68
2023/06/24 04:38:10;;;;;;;14.32;10.80;;;;;;;17.69;81.63;102191.66;3569842;40;20203;-69
2023/06/24 04:40:36;;;;;;;12.00;10.20;;;;;;;17.08;81.20;102088.06;3574752;40;20055;-69
2023/06/24 04:43:02;;;;;;;15.90;11.35;;;;;;;17.72;80.71;102199.59;3575883;40;20203;-68
2023/06/24 04:45:28;;;;;;;12.77;10.82;;;;;;;17.73;80.57;102194.06;3576374;40;20079;-69
2023/06/24 04:47:54;;;;;;;13.25;11.32;;;;;;;17.75;79.04;102200.25;3572203;40;20079;-68
2023/06/24 04:50:20;;;;;;;13.90;12.10;;;;;;;17.76;79.47;102198.41;3576873;40;20052;-69
2023/06/24 04:52:51;;;;;;;13.10;11.45;;;;;;;17.78;79.45;102197.34;3571880;40;20469;-68
2023/06/24 04:55:17;;;;;;;15.60;12.10;;;;;;;17.82;79.02;102201.63;3571337;40;20488;-68
2023/06/24 04:57:42;;;;;;;14.90;11.77;;;;;;;17.81;78.23;102191.69;3573045;40;20048;-68
2023/06/24 05:00:08;;;;;;;13.73;11.88;;;;;;;17.89;77.50;102199.34;3576043;40;20059;-68
2023/06/24 05:02:34;;;;;;;13.60;12.20;;;;;;;17.94;77.53;102199.00;3572411;40;20052;-68
2023/06/24 05:05:00;;;;;;;14.75;12.23;;;;;;;17.97;77.49;102198.78;3573025;40;20497;-67
2023/06/24 05:07:25;;;;;;;13.65;12.23;;;;;;;17.94;76.85;102185.38;3574252;40;20055;-67
2023/06/24 05:09:51;;;;;;;14.57;12.43;;;;;;;18.10;77.22;102196.91;3572837;40;20060;-67
2023/06/24 05:12:17;;;;;;;13.63;12.13;;;;;;;18.12;77.04;102197.69;3575166;40;20230;-67
2023/06/24 05:14:42;;;;;;;14.77;13.10;;;;;;;18.21;76.07;102199.75;3573269;39;20068;-67
2023/06/24 05:17:08;;;;;;;13.98;12.50;;;;;;;18.16;75.86;102180.16;3573005;40;20052;-67
2023/06/24 05:19:34;;;;;;;13.85;12.45;;;;;;;18.29;75.12;102201.91;3559861;40;20059;-66
2023/06/24 05:21:59;;;;;;;17.08;12.80;;;;;;;18.32;74.31;102196.22;3575095;40;20076;-67
2023/06/24 05:24:25;;;;;;;18.75;13.00;;;;;;;18.40;75.45;102195.69;3573001;40;20083;-67
2023/06/24 05:26:52;;;;;;;14.93;12.25;;;;;;;18.42;74.28;102197.28;3569462;40;20055;-67
2023/06/24 05:29:18;;;;;;;13.77;11.93;;;;;;;18.46;74.38;102192.53;3573506;40;20064;-67
2023/06/24 05:31:44;;;;;;;14.05;12.55;;;;;;;18.54;74.40;102207.28;3572865;40;20052;-66
2023/06/24 05:34:09;;;;;;;14.55;11.95;;;;;;;18.51;72.91;102195.75;3575090;40;20394;-67
2023/06/24 05:36:36;;;;;;;14.40;11.55;;;;;;;18.58;72.68;102197.03;3573332;40;20063;-67
2023/06/24 05:39:02;;;;;;;13.02;10.80;;;;;;;18.58;71.78;102197.03;3573161;40;20064;-66
2023/06/24 05:41:27;;;;;;;12.07;10.80;;;;;;;18.69;71.68;102199.84;3563589;40;20077;-67
2023/06/24 05:44:09;;;;;;;13.05;10.70;;;;;;;18.73;71.39;102201.38;3570137;40;20676;-66
2023/06/24 05:46:35;;;;;;;11.38;10.18;;;;;;;18.83;70.64;102208.88;3571309;40;20052;-67
2023/06/24 05:49:01;;;;;;;11.07;9.88;;;;;;;18.89;69.79;102205.69;3571595;40;20048;-67
2023/06/24 05:51:27;;;;;;;11.88;10.45;;;;;;;18.94;70.09;102207.09;3569987;40;20287;-65
2023/06/24 05:53:52;;;;;;;11.80;10.57;;;;;;;19.00;69.93;102211.22;3572414;40;20057;-67
2023/06/24 05:56:19;;;;;;;10.50;9.38;;;;;;;19.04;68.55;102210.00;3570631;40;20060;-67
2023/06/24 05:58:45;;;;;;;11.38;9.82;;;;;;;19.12;67.57;102207.53;3570623;40;20120;-68
2023/06/24 06:01:11;;;;;;;10.88;9.68;;;;;;;19.18;68.39;102201.63;3573580;40;20414;-66
2023/06/24 06:03:36;;;;;;;9.32;8.35;;;;;;;19.01;66.54;102161.16;3573966;40;22004;-66
2023/06/24 06:06:02;;;;;;;10.75;9.07;;;;;;;18.50;66.57;102063.31;3566228;40;20376;-66
2023/06/24 06:08:28;;;;;;;11.50;9.63;;;;;;;19.46;66.34;102204.97;3577076;40;20048;-67
2023/06/24 06:10:54;;;;;;;13.10;9.13;;;;;;;19.63;66.77;102215.44;3575546;40;20068;-67
2023/06/24 06:13:19;;;;;;;10.07;8.63;;;;;;;19.76;65.78;102203.56;3575452;40;20060;-68
2023/06/24 06:15:45;;;;;;;9.20;8.30;;;;;;;19.94;65.18;102216.63;3573120;40;20072;-68
2023/06/24 06:18:11;;;;;;;10.52;9.43;;;;;;;20.04;64.00;102222.22;3573751;40;20074;-68
2023/06/24 06:20:37;;;;;;;9.43;8.40;;;;;;;20.12;63.39;102218.91;3578016;40;20064;-68
2023/06/24 06:23:03;;;;;;;11.07;8.80;;;;;;;20.17;63.19;102203.88;3576663;40;20056;-68
2023/06/24 06:25:28;;;;;;;9.52;8.13;;;;;;;20.34;62.50;102220.78;3575425;40;20161;-68
2023/06/24 06:27:54;;;;;;;9.10;7.85;;;;;;;20.45;62.33;102214.41;3575582;40;20434;-68
2023/06/24 06:30:20;;;;;;;9.27;8.05;;;;;;;20.52;60.81;102216.56;3575688;40;21772;-69
2023/06/24 06:32:46;;;;;;;8.80;7.38;;;;;;;20.69;60.58;102225.25;3576190;40;20064;-66
2023/06/24 06:35:11;;;;;;;10.27;7.72;;;;;;;20.78;60.16;102217.16;3577629;40;20068;-66
2023/06/24 06:37:37;;;;;;;8.65;7.85;;;;;;;20.89;59.78;102229.03;3579876;40;20090;-67
2023/06/24 06:40:03;;;;;;;9.13;7.68;;;;;;;20.91;57.77;102230.66;3579146;40;20235;-67
2023/06/24 06:42:30;;;;;;;9.55;7.70;;;;;;;20.91;58.38;102216.13;3579804;40;20108;-67
2023/06/24 06:44:55;;;;;;;7.93;6.95;;;;;;;21.14;58.66;102231.47;3577036;40;20516;-67
2023/06/24 06:47:21;;;;;;;8.43;7.25;;;;;;;20.97;57.15;102182.81;3577450;40;20059;-67
2023/06/24 06:49:46;;;;;;;9.70;6.97;;;;;;;21.35;56.47;102226.06;3575419;40;20060;-66
2023/06/24 06:52:12;;;;;;;8.60;6.65;;;;;;;21.52;56.41;102239.16;3574807;40;20052;-69
2023/06/24 06:54:38;;;;;;;8.15;6.40;;;;;;;21.69;55.13;102243.19;3576206;40;20405;-67
2023/06/24 06:57:05;;;;;;;6.35;5.75;;;;;;;21.84;54.03;102243.72;3577680;40;20556;-66
2023/06/24 06:59:32;;;;;;;6.68;5.57;;;;;;;21.98;53.67;102243.41;3577352;40;20048;-66
2023/06/24 07:01:58;;;;;;;6.90;5.90;;;;;;;22.13;53.96;102243.03;3574474;40;20114;-67
2023/06/24 07:04:24;;;;;;;5.13;4.63;;;;;;;22.34;53.94;102249.38;3577755;40;20068;-67
2023/06/24 07:06:50;;;;;;;6.25;5.13;;;;;;;22.53;53.25;102255.97;3574514;40;20056;-67
2023/06/24 07:09:16;;;;;;;7.13;6.28;;;;;;;22.67;52.70;102258.28;3576120;40;20064;-67
2023/06/24 07:11:43;;;;;;;6.47;5.40;;;;;;;22.71;52.54;102266.13;3575139;40;20056;-67
2023/06/24 07:14:09;;;;;;;15.27;6.13;;;;;;;22.79;52.57;102259.94;3573782;40;20056;-68
2023/06/24 07:16:34;;;;;;;6.95;6.15;;;;;;;22.96;52.15;102257.53;3573962;40;20058;-67
2023/06/24 07:19:00;;;;;;;6.97;5.45;;;;;;;23.03;51.83;102258.75;3572311;40;20066;-68
2023/06/24 07:21:26;;;;;;;6.20;5.60;;;;;;;23.11;52.18;102250.66;3575258;40;20299;-68
2023/06/24 07:23:51;;;;;;;50.55;9.73;;;;;;;23.16;52.80;102259.34;3574331;40;20397;-69
2023/06/24 07:26:17;;;;;;;30.02;8.20;;;;;;;23.27;51.25;102255.59;3575182;40;20056;-70
2023/06/24 07:28:42;;;;;;;7.32;6.07;;;;;;;23.38;50.52;102242.59;3571428;40;20063;-69
2023/06/24 07:31:08;;;;;;;21.45;5.82;;;;;;;23.50;51.23;102253.41;3574586;40;20060;-70
2023/06/24 07:33:34;;;;;;;18.40;5.53;;;;;;;23.60;50.77;102249.66;3575357;40;20103;-69
2023/06/24 07:36:00;;;;;;;28.67;7.47;;;;;;;23.60;49.10;102224.97;3573854;40;20048;-69
2023/06/24 07:38:28;;;;;;;9.18;5.40;;;;;;;23.80;49.49;102249.69;3572024;40;20476;-69
2023/06/24 07:40:53;;;;;;;8.50;5.60;;;;;;;23.91;49.68;102245.91;3574846;40;20410;-67
2023/06/24 07:43:19;;;;;;;7.53;4.70;;;;;;;24.07;49.05;102251.63;3574600;40;20056;-68
2023/06/24 07:45:44;;;;;;;9.13;5.03;;;;;;;24.13;48.35;102242.78;3574768;40;20125;-67
2023/06/24 07:48:10;;;;;;;8.25;4.65;;;;;;;24.38;48.34;102251.41;3575415;40;20088;-68
2023/06/24 07:50:38;;;;;;;5.85;4.95;;;;;;;24.36;48.46;102220.44;3574532;40;20079;-69
2023/06/24 07:53:03;;;;;;;7.40;4.93;;;;;;;24.67;46.44;102252.16;3574108;40;20060;-69
2023/06/24 07:55:29;;;;;;;4.60;4.20;;;;;;;24.76;45.48;102250.38;3574495;40;20067;-68
2023/06/24 07:57:55;;;;;;;5.35;3.83;;;;;;;24.70;47.14;102218.00;3571236;40;20064;-70
2023/06/24 08:00:20;;;;;;;3.60;3.30;;;;;;;25.06;45.73;102251.09;3573475;40;20115;-69
2023/06/24 08:02:46;;;;;;;4.22;3.30;;;;;;;25.10;43.94;102252.50;3575167;40;20107;-69
2023/06/24 08:05:11;;;;;;;4.10;3.40;;;;;;;25.11;43.84;102255.09;3574929;40;20063;-69
2023/06/24 08:07:38;;;;;;;4.00;3.00;;;;;;;24.94;42.69;102209.16;3570337;40;20071;-69
2023/06/24 08:10:05;;;;;;;3.35;3.05;;;;;;;25.38;42.76;102245.09;3569091;40;20052;-70
2023/06/24 08:12:31;;;;;;;3.40;3.10;;;;;;;25.50;43.23;102245.69;3576503;40;20052;-69
2023/06/24 08:14:57;;;;;;;4.90;2.97;;;;;;;25.60;45.01;102247.34;3575228;39;20049;-69
2023/06/24 08:17:23;;;;;;;5.00;3.30;;;;;;;25.80;42.88;102244.41;3574547;40;20149;-69
2023/06/24 08:19:49;;;;;;;2.90;2.60;;;;;;;25.80;41.06;102247.16;3573589;40;20064;-69
2023/06/24 08:22:14;;;;;;;3.17;2.72;;;;;;;25.65;40.91;102233.09;3571240;40;20816;-69
2023/06/24 08:24:40;;;;;;;3.50;2.45;;;;;;;25.84;41.12;102240.31;3571396;40;20102;-69
2023/06/24 08:27:06;;;;;;;2.50;2.30;;;;;;;25.82;39.72;102251.53;3574682;40;20141;-69
2023/06/24 08:29:31;;;;;;;2.75;2.50;;;;;;;25.95;38.77;102242.84;3572467;40;20951;-69
2023/06/24 08:31:57;;;;;;;3.00;2.50;;;;;;;25.99;38.67;102235.97;3572653;40;20131;-70
2023/06/24 08:34:22;;;;;;;2.70;2.50;;;;;;;26.03;39.57;102226.34;3573347;40;20057;-70
2023/06/24 08:36:48;;;;;;;4.35;2.45;;;;;;;26.10;41.55;102235.72;3573376;40;20044;-69
2023/06/24 08:39:14;;;;;;;2.50;2.30;;;;;;;26.28;40.47;102245.78;3571553;40;20099;-69
2023/06/24 08:41:39;;;;;;;2.45;2.25;;;;;;;26.36;38.21;102235.69;3574204;40;20083;-69
2023/06/24 08:44:05;;;;;;;2.40;2.20;;;;;;;26.55;40.03;102240.09;3571718;40;20108;-69
2023/06/24 08:46:33;;;;;;;2.47;2.28;;;;;;;26.68;38.93;102233.28;3571866;40;20296;-68
2023/06/24 08:49:28;;;;;;;4.03;2.30;;;;;;;26.93;38.30;102226.78;3570288;40;20056;-69
2023/06/24 08:52:12;;;;;;;3.50;2.50;;;;;;;27.01;37.59;102226.78;3573695;40;20808;-69
2023/06/24 08:54:40;;;;;;;2.72;2.45;;;;;;;27.13;37.76;102232.88;3573644;40;20387;-69
2023/06/24 08:57:08;;;;;;;3.40;2.55;;;;;;;27.20;37.15;102227.56;3572832;40;20512;-68
2023/06/24 08:59:34;;;;;;;3.55;2.85;;;;;;;27.26;38.46;102235.16;3573929;40;20056;-68
2023/06/24 09:02:01;;;;;;;2.55;2.33;;;;;;;27.21;36.27;102212.72;3571643;40;20067;-68
2023/06/24 09:04:27;;;;;;;2.47;2.28;;;;;;;27.37;36.41;102221.03;3566912;40;20553;-68
2023/06/24 09:06:52;;;;;;;3.70;2.08;;;;;;;27.54;36.24;102219.13;3578004;40;20056;-68
2023/06/24 09:09:23;;;;;;;3.00;2.30;;;;;;;27.65;36.54;102212.38;3576780;40;20370;-68
2023/06/24 09:11:56;;;;;;;4.18;2.60;;;;;;;27.85;37.59;102227.63;3574417;40;20747;-67
2023/06/24 09:14:25;;;;;;;3.50;2.40;;;;;;;28.07;36.10;102230.66;3573844;40;20299;-68
2023/06/24 09:16:54;;;;;;;2.92;2.25;;;;;;;28.18;37.12;102227.53;3575865;40;20056;-67
2023/06/24 09:19:28;;;;;;;2.53;2.33;;;;;;;28.26;37.13;102224.75;3571627;40;20515;-68
2023/06/24 09:21:53;;;;;;;3.25;2.90;;;;;;;28.34;37.86;102219.19;3574252;40;20040;-68
2023/06/24 09:24:19;;;;;;;2.92;2.53;;;;;;;27.90;36.19;102120.13;3575323;40;20091;-68
2023/06/24 09:26:45;;;;;;;2.90;2.50;;;;;;;28.42;37.39;102197.06;3578669;40;20153;-68
2023/06/24 09:29:14;;;;;;;1.80;1.70;;;;;;;28.66;35.18;102214.59;3571418;40;20627;-68
2023/06/24 09:31:49;;;;;;;3.03;2.53;;;;;;;28.67;34.37;102194.16;3572614;40;20323;-68
2023/06/24 09:34:15;;;;;;;2.53;2.28;;;;;;;28.74;34.22;102203.50;3572354;40;20067;-69
2023/06/24 09:36:55;;;;;;;2.58;2.38;;;;;;;28.74;33.32;102200.72;3571351;40;20059;-69
2023/06/24 09:39:28;;;;;;;3.17;2.28;;;;;;;28.78;33.05;102199.31;3570211;40;20060;-69
2023/06/24 09:41:54;;;;;;;3.13;1.95;;;;;;;28.78;33.18;102179.94;3575413;40;20060;-68
2023/06/24 09:44:19;;;;;;;2.22;2.03;;;;;;;28.98;32.80;102196.06;3571963;40;20300;-69
2023/06/24 09:46:46;;;;;;;2.63;2.10;;;;;;;29.05;34.54;102186.91;3571448;40;20112;-69
2023/06/24 09:49:12;;;;;;;2.38;2.17;;;;;;;29.15;32.52;102193.06;3563773;40;20084;-69
2023/06/24 09:51:43;;;;;;;2.78;2.08;;;;;;;29.17;32.00;102200.31;3573936;40;20075;-69
2023/06/24 09:54:12;;;;;;;3.10;2.05;;;;;;;29.24;28.39;102190.19;3570449;40;20056;-69
2023/06/24 09:56:46;;;;;;;1.80;1.70;;;;;;;29.28;30.21;102188.81;3571707;40;20067;-69
2023/06/24 09:59:14;;;;;;;2.25;2.05;;;;;;;29.37;30.93;102173.84;3572504;40;20129;-69
2023/06/24 10:01:43;;;;;;;4.60;2.25;;;;;;;29.54;31.53;102194.81;3573659;40;20125;-70
2023/06/24 10:04:16;;;;;;;2.40;1.83;;;;;;;29.42;30.61;102154.72;3573109;39;20060;-70
2023/06/24 10:06:41;;;;;;;2.78;2.22;;;;;;;29.79;31.38;102189.91;3574279;40;20065;-70
2023/06/24 10:09:08;;;;;;;2.35;1.70;;;;;;;30.00;32.08;102191.06;3573760;40;20076;-70
2023/06/24 10:11:34;;;;;;;2.95;2.72;;;;;;;30.08;31.80;102189.09;3573480;40;20052;-70
2023/06/24 10:14:01;;;;;;;2.67;2.28;;;;;;;30.26;32.00;102187.88;3567540;40;20655;-70
2023/06/24 10:16:26;;;;;;;2.50;2.05;;;;;;;30.27;29.91;102192.38;3573780;40;20056;-70
2023/06/24 10:19:01;;;;;;;2.90;2.60;;;;;;;30.22;33.62;102181.84;3574629;40;20106;-70
2023/06/24 10:21:50;;;;;;;2.33;2.13;;;;;;;30.28;30.75;102189.38;3574275;40;20097;-70
2023/06/24 10:24:35;;;;;;;3.75;2.30;;;;;;;30.36;33.07;102176.50;3572902;40;20051;-70
2023/06/24 10:27:08;;;;;;;3.03;2.42;;;;;;;30.44;30.81;102181.91;3575098;40;20587;-69
2023/06/24 10:29:39;;;;;;;2.67;2.47;;;;;;;30.56;30.27;102185.06;3571230;40;20060;-70
2023/06/24 10:32:09;;;;;;;3.60;2.55;;;;;;;30.36;29.69;102157.06;3568956;40;20762;-71
2023/06/24 10:34:37;;;;;;;3.25;2.20;;;;;;;30.62;30.01;102179.59;3570974;40;20068;-70
2023/06/24 10:37:07;;;;;;;2.53;2.33;;;;;;;30.51;28.91;102178.19;3573488;40;20053;-70
2023/06/24 10:39:57;;;;;;;3.13;2.22;;;;;;;30.57;28.73;102172.91;3572905;40;20065;-70
2023/06/24 10:42:43;;;;;;;2.60;2.38;;;;;;;30.68;30.61;102176.03;3574052;40;20138;-70
2023/06/24 10:45:08;;;;;;;3.53;2.30;;;;;;;30.75;29.70;102162.22;3571567;40;20162;-70
2023/06/24 10:47:39;;;;;;;2.30;2.10;;;;;;;30.69;30.31;102163.88;3575527;40;20284;-70
2023/06/24 10:50:08;;;;;;;2.58;2.38;;;;;;;30.65;29.97;102165.31;3576768;40;20091;-69
2023/06/24 10:52:40;;;;;;;3.28;2.60;;;;;;;30.54;30.88;102146.38;3576232;40;20060;-69
2023/06/24 10:55:07;;;;;;;3.83;2.40;;;;;;;30.66;33.32;102158.72;3574013;40;20106;-68
2023/06/24 10:57:33;;;;;;;2.75;2.55;;;;;;;30.60;31.33;102131.72;3575013;40;20363;-68
2023/06/24 11:00:01;;;;;;;3.58;2.58;;;;;;;30.33;31.13;102066.75;3574407;40;20145;-70
2023/06/24 11:02:27;;;;;;;2.65;2.45;;;;;;;31.04;30.91;102154.88;3569700;40;20618;-69
2023/06/24 11:04:57;;;;;;;2.90;2.60;;;;;;;31.21;30.55;102151.66;3574876;40;20434;-70
2023/06/24 11:07:44;;;;;;;2.88;2.58;;;;;;;31.34;29.95;102150.09;3572376;40;20362;-69
2023/06/24 11:10:15;;;;;;;2.33;2.13;;;;;;;31.63;32.27;102146.25;3571287;40;20583;-70
2023/06/24 11:12:42;;;;;;;2.95;2.65;;;;;;;31.70;30.19;102137.97;3574283;40;20062;-69
2023/06/24 11:15:13;;;;;;;2.85;2.65;;;;;;;31.81;29.17;102146.59;3574272;39;20063;-69
2023/06/24 11:17:40;;;;;;;2.95;2.60;;;;;;;31.87;30.31;102140.19;3572488;40;20145;-69
2023/06/24 11:20:13;;;;;;;3.10;2.80;;;;;;;31.65;30.59;102122.75;3574270;40;20058;-69
2023/06/24 11:22:43;;;;;;;;;;;;;;;31.67;30.10;102139.22;3574549;40;20056;-69
2023/06/24 11:25:17;;;;;;;3.92;2.53;;;;;;;31.61;32.56;102129.75;3573517;40;19947;-69
2023/06/24 11:27:43;;;;;;;2.90;2.70;;;;;;;31.70;29.95;102137.97;3573313;40;20071;-69